WZZ52S LOWI-LIPZ
Flight info
| Callsign | WZZ52S |
|---|---|
| Flight time | 0h 44m |
| Altitude | 19000 |
| Route | BRENO M726 NAXAV M736 ADOSA L612 ALBET |
| Aircraft | A320/M-SDE3FGHIRWY/LB1 |
Departure
| Time | 2026-05-06 14:20 |
|---|---|
| Airport | Innsbruck Airport (LOWI) |
Arrival
| Time | 2026-05-06 15:05 |
|---|---|
| Airport | Venice Marco Polo Airport (LIPZ) |
| Time | Latitude | Longitude | Altitude | Speed | Heading |
|---|---|---|---|---|---|
| 2026-05-06 14:07 | 47.25838 | 11.35177 | 1905 ft | 0 kts | 172° |
| 2026-05-06 14:13 | 47.25845 | 11.35176 | 1907 ft | 2 kts | 172° |
| 2026-05-06 14:14 | 47.25861 | 11.35173 | 1894 ft | 2 kts | 172° |
| 2026-05-06 14:14 | 47.25877 | 11.35170 | 1902 ft | 2 kts | 173° |
| 2026-05-06 14:14 | 47.25892 | 11.35175 | 1900 ft | 2 kts | 241° |
| 2026-05-06 14:14 | 47.25897 | 11.35189 | 1901 ft | 0 kts | 248° |
| 2026-05-06 14:15 | 47.25896 | 11.35188 | 1901 ft | 0 kts | 248° |
| 2026-05-06 14:16 | 47.25890 | 11.35160 | 1899 ft | 12 kts | 254° |
| 2026-05-06 14:16 | 47.25869 | 11.34981 | 1904 ft | 24 kts | 262° |
| 2026-05-06 14:17 | 47.25839 | 11.34724 | 1905 ft | 26 kts | 260° |
| 2026-05-06 14:17 | 47.25808 | 11.34455 | 1902 ft | 27 kts | 261° |
| 2026-05-06 14:17 | 47.25780 | 11.34177 | 1907 ft | 28 kts | 261° |
| 2026-05-06 14:17 | 47.25803 | 11.33899 | 1900 ft | 28 kts | 307° |
| 2026-05-06 14:18 | 47.25899 | 11.33695 | 1895 ft | 14 kts | 306° |
| 2026-05-06 14:18 | 47.25929 | 11.33555 | 1908 ft | 16 kts | 266° |
| 2026-05-06 14:18 | 47.25909 | 11.33384 | 1902 ft | 18 kts | 259° |
| 2026-05-06 14:18 | 47.25850 | 11.33217 | 1900 ft | 19 kts | 238° |
| 2026-05-06 14:19 | 47.25833 | 11.33097 | 1906 ft | 10 kts | 285° |
| 2026-05-06 14:19 | 47.25881 | 11.33122 | 1896 ft | 10 kts | 73° |
| 2026-05-06 14:19 | 47.25911 | 11.33415 | 1906 ft | 67 kts | 82° |
| 2026-05-06 14:19 | 47.26029 | 11.34461 | 1901 ft | 136 kts | 80° |
| 2026-05-06 14:20 | 47.26197 | 11.36020 | 2248 ft | 160 kts | 82° |
| 2026-05-06 14:20 | 47.26454 | 11.37648 | 3022 ft | 168 kts | 78° |
| 2026-05-06 14:20 | 47.26702 | 11.39354 | 3727 ft | 170 kts | 85° |
| 2026-05-06 14:20 | 47.26846 | 11.41066 | 4254 ft | 172 kts | 83° |
| 2026-05-06 14:21 | 47.26987 | 11.42821 | 4728 ft | 176 kts | 81° |
| 2026-05-06 14:21 | 47.27190 | 11.44627 | 5239 ft | 180 kts | 73° |
| 2026-05-06 14:21 | 47.27514 | 11.46439 | 5604 ft | 193 kts | 92° |
| 2026-05-06 14:21 | 47.27156 | 11.48372 | 5840 ft | 205 kts | 130° |
| 2026-05-06 14:22 | 47.25989 | 11.49626 | 6044 ft | 221 kts | 167° |
| 2026-05-06 14:22 | 47.24436 | 11.49414 | 6757 ft | 230 kts | 200° |
| 2026-05-06 14:22 | 47.22931 | 11.48651 | 7953 ft | 228 kts | 198° |
| 2026-05-06 14:22 | 47.21413 | 11.47976 | 9125 ft | 230 kts | 197° |
| 2026-05-06 14:23 | 47.19889 | 11.47322 | 10284 ft | 228 kts | 196° |
| 2026-05-06 14:23 | 47.18359 | 11.46669 | 11347 ft | 229 kts | 197° |
| 2026-05-06 14:23 | 47.16821 | 11.46006 | 12442 ft | 232 kts | 197° |
| 2026-05-06 14:23 | 47.15291 | 11.45338 | 13529 ft | 233 kts | 198° |
| 2026-05-06 14:24 | 47.13724 | 11.44645 | 14321 ft | 243 kts | 198° |
| 2026-05-06 14:24 | 47.12030 | 11.43892 | 14658 ft | 267 kts | 198° |
| 2026-05-06 14:24 | 47.10175 | 11.43069 | 15038 ft | 291 kts | 198° |
| 2026-05-06 14:24 | 47.08160 | 11.42172 | 15382 ft | 315 kts | 198° |
| 2026-05-06 14:25 | 47.05994 | 11.41205 | 15932 ft | 330 kts | 198° |
| 2026-05-06 14:25 | 47.03770 | 11.40215 | 16751 ft | 338 kts | 198° |
| 2026-05-06 14:25 | 47.01510 | 11.39214 | 17656 ft | 343 kts | 198° |
| 2026-05-06 14:25 | 46.99195 | 11.38196 | 18410 ft | 351 kts | 198° |
| 2026-05-06 14:26 | 46.96731 | 11.37499 | 18732 ft | 374 kts | 188° |
| 2026-05-06 14:26 | 46.94063 | 11.37191 | 18818 ft | 396 kts | 187° |
| 2026-05-06 14:26 | 46.91243 | 11.36885 | 18856 ft | 417 kts | 187° |
| 2026-05-06 14:26 | 46.88280 | 11.36574 | 18935 ft | 428 kts | 187° |
| 2026-05-06 14:27 | 46.85434 | 11.36302 | 19040 ft | 398 kts | 187° |
| 2026-05-06 14:27 | 46.82700 | 11.36025 | 18901 ft | 391 kts | 187° |
| 2026-05-06 14:27 | 46.80004 | 11.35731 | 18865 ft | 388 kts | 187° |
| 2026-05-06 14:27 | 46.77319 | 11.35428 | 18868 ft | 385 kts | 187° |
| 2026-05-06 14:28 | 46.74647 | 11.35133 | 18872 ft | 385 kts | 187° |
| 2026-05-06 14:28 | 46.71976 | 11.34847 | 18883 ft | 385 kts | 187° |
| 2026-05-06 14:28 | 46.69305 | 11.34569 | 18881 ft | 385 kts | 186° |
| 2026-05-06 14:28 | 46.66626 | 11.34296 | 18885 ft | 388 kts | 186° |
| 2026-05-06 14:29 | 46.63937 | 11.34024 | 18886 ft | 387 kts | 186° |
| 2026-05-06 14:29 | 46.61257 | 11.33753 | 18863 ft | 385 kts | 186° |
| 2026-05-06 14:29 | 46.58619 | 11.33485 | 18870 ft | 386 kts | 187° |
| 2026-05-06 14:29 | 46.55941 | 11.33208 | 18877 ft | 387 kts | 187° |
| 2026-05-06 14:30 | 46.53261 | 11.32929 | 18878 ft | 386 kts | 187° |
| 2026-05-06 14:30 | 46.50572 | 11.32650 | 18882 ft | 387 kts | 187° |
| 2026-05-06 14:30 | 46.47898 | 11.32362 | 18882 ft | 386 kts | 188° |
| 2026-05-06 14:30 | 46.45274 | 11.31627 | 18883 ft | 383 kts | 198° |
| 2026-05-06 14:31 | 46.42751 | 11.30379 | 18891 ft | 383 kts | 200° |
| 2026-05-06 14:31 | 46.40183 | 11.29429 | 18877 ft | 385 kts | 188° |
| 2026-05-06 14:31 | 46.37491 | 11.29581 | 18845 ft | 390 kts | 175° |
| 2026-05-06 14:31 | 46.34799 | 11.30180 | 18850 ft | 391 kts | 174° |
| 2026-05-06 14:32 | 46.32167 | 11.30786 | 18858 ft | 392 kts | 174° |
| 2026-05-06 14:32 | 46.29463 | 11.31414 | 18859 ft | 393 kts | 174° |
| 2026-05-06 14:32 | 46.26758 | 11.32044 | 18860 ft | 392 kts | 174° |
| 2026-05-06 14:32 | 46.24068 | 11.32665 | 18872 ft | 392 kts | 174° |
| 2026-05-06 14:33 | 46.21365 | 11.33283 | 18873 ft | 393 kts | 174° |
| 2026-05-06 14:33 | 46.18667 | 11.33895 | 18878 ft | 393 kts | 175° |
| 2026-05-06 14:33 | 46.15963 | 11.34506 | 18887 ft | 393 kts | 175° |
| 2026-05-06 14:33 | 46.13262 | 11.35114 | 18892 ft | 393 kts | 175° |
| 2026-05-06 14:34 | 46.10594 | 11.35715 | 18890 ft | 392 kts | 175° |
| 2026-05-06 14:34 | 46.07902 | 11.36322 | 18896 ft | 391 kts | 175° |
| 2026-05-06 14:34 | 46.05218 | 11.36928 | 18897 ft | 392 kts | 174° |
| 2026-05-06 14:34 | 46.02516 | 11.37540 | 18901 ft | 393 kts | 174° |
| 2026-05-06 14:35 | 45.99819 | 11.38150 | 18890 ft | 392 kts | 175° |
| 2026-05-06 14:35 | 45.97173 | 11.38752 | 18827 ft | 375 kts | 175° |
| 2026-05-06 14:35 | 45.94646 | 11.39332 | 18564 ft | 364 kts | 174° |
| 2026-05-06 14:35 | 45.92161 | 11.39898 | 18067 ft | 360 kts | 175° |
| 2026-05-06 14:36 | 45.89698 | 11.40451 | 17508 ft | 356 kts | 175° |
| 2026-05-06 14:36 | 45.87263 | 11.40992 | 16953 ft | 353 kts | 175° |
| 2026-05-06 14:36 | 45.84838 | 11.41532 | 16399 ft | 350 kts | 175° |
| 2026-05-06 14:36 | 45.82446 | 11.42065 | 15825 ft | 347 kts | 175° |
| 2026-05-06 14:37 | 45.80062 | 11.42596 | 15272 ft | 345 kts | 174° |
| 2026-05-06 14:37 | 45.77698 | 11.43129 | 14752 ft | 343 kts | 174° |
| 2026-05-06 14:37 | 45.75347 | 11.43658 | 14198 ft | 341 kts | 174° |
| 2026-05-06 14:37 | 45.73045 | 11.44175 | 13698 ft | 338 kts | 174° |
| 2026-05-06 14:38 | 45.70731 | 11.44694 | 13106 ft | 336 kts | 174° |
| 2026-05-06 14:38 | 45.68427 | 11.45210 | 12516 ft | 334 kts | 174° |
| 2026-05-06 14:38 | 45.66137 | 11.45722 | 11922 ft | 332 kts | 174° |
| 2026-05-06 14:38 | 45.63861 | 11.46229 | 11361 ft | 330 kts | 174° |
| 2026-05-06 14:39 | 45.61600 | 11.46731 | 10972 ft | 328 kts | 174° |
| 2026-05-06 14:39 | 45.59334 | 11.47234 | 10883 ft | 330 kts | 174° |
| 2026-05-06 14:39 | 45.57063 | 11.47733 | 10893 ft | 332 kts | 175° |
| 2026-05-06 14:39 | 45.54769 | 11.48237 | 10891 ft | 333 kts | 175° |
| 2026-05-06 14:40 | 45.52480 | 11.48742 | 10897 ft | 333 kts | 175° |
| 2026-05-06 14:40 | 45.50196 | 11.49248 | 10860 ft | 331 kts | 174° |
| 2026-05-06 14:40 | 45.47982 | 11.49745 | 10672 ft | 319 kts | 174° |
| 2026-05-06 14:40 | 45.45833 | 11.50239 | 10442 ft | 310 kts | 173° |
| 2026-05-06 14:41 | 45.43796 | 11.51394 | 9902 ft | 318 kts | 150° |
| 2026-05-06 14:41 | 45.42243 | 11.53503 | 9764 ft | 303 kts | 130° |
| 2026-05-06 14:41 | 45.41325 | 11.56157 | 9293 ft | 301 kts | 109° |
| 2026-05-06 14:41 | 45.40882 | 11.59059 | 8689 ft | 299 kts | 105° |
| 2026-05-06 14:42 | 45.40470 | 11.61946 | 8108 ft | 296 kts | 105° |
| 2026-05-06 14:42 | 45.40070 | 11.64770 | 7540 ft | 294 kts | 105° |
| 2026-05-06 14:42 | 45.39666 | 11.67601 | 7011 ft | 290 kts | 105° |
| 2026-05-06 14:42 | 45.39265 | 11.70397 | 6469 ft | 287 kts | 105° |
| 2026-05-06 14:43 | 45.38865 | 11.73168 | 5924 ft | 285 kts | 105° |
| 2026-05-06 14:43 | 45.38467 | 11.75913 | 5376 ft | 281 kts | 104° |
| 2026-05-06 14:43 | 45.38074 | 11.78614 | 5049 ft | 279 kts | 104° |
| 2026-05-06 14:43 | 45.37678 | 11.81319 | 5003 ft | 279 kts | 104° |
| 2026-05-06 14:44 | 45.37421 | 11.83084 | 5001 ft | 270 kts | 104° |
| 2026-05-06 14:44 | 45.37051 | 11.85640 | 5003 ft | 256 kts | 104° |
| 2026-05-06 14:44 | 45.36696 | 11.88074 | 5006 ft | 250 kts | 105° |
| 2026-05-06 14:45 | 45.35868 | 11.93660 | 4931 ft | 247 kts | 104° |
| 2026-05-06 14:45 | 45.35512 | 11.96043 | 4636 ft | 246 kts | 104° |
| 2026-05-06 14:45 | 45.35272 | 11.97646 | 4431 ft | 245 kts | 104° |
| 2026-05-06 14:45 | 45.35092 | 12.00033 | 4165 ft | 245 kts | 84° |
| 2026-05-06 14:46 | 45.35454 | 12.02361 | 3886 ft | 243 kts | 76° |
| 2026-05-06 14:46 | 45.35935 | 12.04660 | 3579 ft | 242 kts | 75° |
| 2026-05-06 14:46 | 45.36432 | 12.06933 | 3300 ft | 239 kts | 76° |
| 2026-05-06 14:46 | 45.36918 | 12.09152 | 3165 ft | 230 kts | 75° |
| 2026-05-06 14:47 | 45.37508 | 12.11210 | 3040 ft | 221 kts | 66° |
| 2026-05-06 14:47 | 45.38178 | 12.13097 | 2928 ft | 205 kts | 65° |
| 2026-05-06 14:47 | 45.38823 | 12.14839 | 2597 ft | 192 kts | 65° |
| 2026-05-06 14:47 | 45.39405 | 12.16401 | 2494 ft | 164 kts | 66° |
| 2026-05-06 14:48 | 45.39927 | 12.17751 | 2210 ft | 150 kts | 64° |
| 2026-05-06 14:48 | 45.40440 | 12.19035 | 2021 ft | 148 kts | 63° |
| 2026-05-06 14:48 | 45.40951 | 12.20303 | 2015 ft | 150 kts | 66° |
| 2026-05-06 14:48 | 45.41462 | 12.21592 | 2017 ft | 150 kts | 65° |
| 2026-05-06 14:49 | 45.41962 | 12.22873 | 2014 ft | 149 kts | 66° |
| 2026-05-06 14:49 | 45.42467 | 12.24164 | 2006 ft | 150 kts | 66° |
| 2026-05-06 14:49 | 45.42992 | 12.25445 | 2014 ft | 151 kts | 58° |
| 2026-05-06 14:49 | 45.43767 | 12.26513 | 1698 ft | 159 kts | 43° |
| 2026-05-06 14:50 | 45.44578 | 12.27560 | 1366 ft | 154 kts | 44° |
| 2026-05-06 14:50 | 45.45358 | 12.28564 | 1129 ft | 147 kts | 45° |
| 2026-05-06 14:50 | 45.46116 | 12.29537 | 937 ft | 145 kts | 45° |
| 2026-05-06 14:50 | 45.46868 | 12.30502 | 739 ft | 147 kts | 46° |
| 2026-05-06 14:51 | 45.47641 | 12.31496 | 515 ft | 155 kts | 41° |
| 2026-05-06 14:51 | 45.48419 | 12.32501 | 315 ft | 157 kts | 48° |
| 2026-05-06 14:51 | 45.49218 | 12.33525 | 115 ft | 155 kts | 46° |
| 2026-05-06 14:51 | 45.50051 | 12.34660 | 510 ft | 166 kts | 45° |
| 2026-05-06 14:52 | 45.50870 | 12.35813 | 1154 ft | 167 kts | 49° |
| 2026-05-06 14:52 | 45.51751 | 12.37072 | 1733 ft | 188 kts | 49° |
| 2026-05-06 14:52 | 45.52723 | 12.38485 | 1972 ft | 209 kts | 51° |
| 2026-05-06 14:52 | 45.53788 | 12.40024 | 2340 ft | 222 kts | 47° |
| 2026-05-06 14:53 | 45.54864 | 12.41631 | 3145 ft | 224 kts | 48° |
| 2026-05-06 14:53 | 45.55918 | 12.43256 | 3892 ft | 230 kts | 48° |
| 2026-05-06 14:53 | 45.56949 | 12.45027 | 4663 ft | 237 kts | 61° |
| 2026-05-06 14:53 | 45.57412 | 12.47264 | 4928 ft | 235 kts | 94° |
| 2026-05-06 14:54 | 45.57003 | 12.49441 | 5001 ft | 226 kts | 127° |
| 2026-05-06 14:54 | 45.55871 | 12.50885 | 5007 ft | 218 kts | 161° |
| 2026-05-06 14:54 | 45.54387 | 12.51267 | 5015 ft | 223 kts | 181° |
| 2026-05-06 14:54 | 45.52817 | 12.51253 | 5008 ft | 227 kts | 184° |
| 2026-05-06 14:55 | 45.51237 | 12.51188 | 5006 ft | 228 kts | 184° |
| 2026-05-06 14:55 | 45.49644 | 12.51113 | 5010 ft | 235 kts | 184° |
| 2026-05-06 14:55 | 45.47919 | 12.51019 | 5004 ft | 256 kts | 185° |
| 2026-05-06 14:55 | 45.46141 | 12.50920 | 5004 ft | 261 kts | 184° |
| 2026-05-06 14:56 | 45.44328 | 12.50823 | 5007 ft | 261 kts | 184° |
| 2026-05-06 14:56 | 45.42511 | 12.50720 | 5001 ft | 260 kts | 187° |
| 2026-05-06 14:56 | 45.40832 | 12.50013 | 4906 ft | 249 kts | 213° |
| 2026-05-06 14:56 | 45.39492 | 12.48467 | 4530 ft | 250 kts | 223° |
| 2026-05-06 14:57 | 45.38222 | 12.46748 | 4111 ft | 253 kts | 224° |
| 2026-05-06 14:57 | 45.36966 | 12.45004 | 3807 ft | 251 kts | 224° |
| 2026-05-06 14:57 | 45.35744 | 12.43298 | 3673 ft | 241 kts | 224° |
| 2026-05-06 14:57 | 45.34585 | 12.41670 | 3482 ft | 235 kts | 224° |
| 2026-05-06 14:58 | 45.33438 | 12.40046 | 3230 ft | 231 kts | 224° |
| 2026-05-06 14:58 | 45.32344 | 12.38380 | 3028 ft | 230 kts | 235° |
| 2026-05-06 14:58 | 45.31822 | 12.36241 | 2805 ft | 233 kts | 265° |
| 2026-05-06 14:58 | 45.32158 | 12.33983 | 2450 ft | 240 kts | 290° |
| 2026-05-06 14:59 | 45.32879 | 12.31820 | 2070 ft | 243 kts | 294° |
| 2026-05-06 14:59 | 45.33634 | 12.29685 | 2007 ft | 244 kts | 294° |
| 2026-05-06 14:59 | 45.34403 | 12.27526 | 2004 ft | 241 kts | 294° |
| 2026-05-06 14:59 | 45.35138 | 12.25495 | 2002 ft | 224 kts | 294° |
| 2026-05-06 15:00 | 45.35854 | 12.23557 | 2004 ft | 219 kts | 295° |
| 2026-05-06 15:00 | 45.36559 | 12.21662 | 2007 ft | 212 kts | 295° |
| 2026-05-06 15:00 | 45.37351 | 12.20006 | 2003 ft | 204 kts | 319° |
| 2026-05-06 15:00 | 45.38640 | 12.19274 | 2010 ft | 203 kts | 2° |
| 2026-05-06 15:01 | 45.39837 | 12.19989 | 2021 ft | 178 kts | 54° |
| 2026-05-06 15:01 | 45.40267 | 12.21459 | 2053 ft | 155 kts | 79° |
| 2026-05-06 15:01 | 45.40840 | 12.22702 | 2022 ft | 153 kts | 38° |
| 2026-05-06 15:01 | 45.41662 | 12.23660 | 1993 ft | 152 kts | 51° |
| 2026-05-06 15:02 | 45.42414 | 12.24724 | 1847 ft | 152 kts | 47° |
| 2026-05-06 15:02 | 45.43183 | 12.25750 | 1659 ft | 150 kts | 45° |
| 2026-05-06 15:02 | 45.43953 | 12.26753 | 1470 ft | 149 kts | 45° |
| 2026-05-06 15:02 | 45.44707 | 12.27727 | 1292 ft | 149 kts | 48° |
| 2026-05-06 15:03 | 45.45471 | 12.28710 | 1084 ft | 146 kts | 46° |
| 2026-05-06 15:03 | 45.46228 | 12.29683 | 887 ft | 144 kts | 46° |
| 2026-05-06 15:03 | 45.46979 | 12.30646 | 690 ft | 144 kts | 46° |
| 2026-05-06 15:03 | 45.47739 | 12.31623 | 475 ft | 149 kts | 46° |
| 2026-05-06 15:04 | 45.48507 | 12.32609 | 297 ft | 150 kts | 46° |
| 2026-05-06 15:04 | 45.49273 | 12.33589 | 110 ft | 148 kts | 43° |
| 2026-05-06 15:04 | 45.49985 | 12.34539 | 11 ft | 121 kts | 41° |
| 2026-05-06 15:04 | 45.50492 | 12.35163 | 11 ft | 71 kts | 43° |
| 2026-05-06 15:05 | 45.50773 | 12.35514 | 15 ft | 48 kts | 40° |
| 2026-05-06 15:05 | 45.51017 | 12.35804 | 13 ft | 39 kts | 28° |
| 2026-05-06 15:05 | 45.51252 | 12.35891 | 12 ft | 23 kts | 354° |
| 2026-05-06 15:05 | 45.51294 | 12.35847 | 13 ft | 1 kts | 272° |
| 2026-05-06 15:06 | 45.51290 | 12.35843 | 13 ft | 1 kts | 236° |
| 2026-05-06 15:06 | 45.51252 | 12.35787 | 12 ft | 12 kts | 224° |
| 2026-05-06 15:06 | 45.51195 | 12.35711 | 14 ft | 10 kts | 216° |
| 2026-05-06 15:06 | 45.51134 | 12.35639 | 15 ft | 15 kts | 221° |
| 2026-05-06 15:07 | 45.51034 | 12.35505 | 16 ft | 21 kts | 228° |
| 2026-05-06 15:07 | 45.50973 | 12.35323 | 19 ft | 20 kts | 258° |
| 2026-05-06 15:07 | 45.50915 | 12.35150 | 19 ft | 20 kts | 224° |
| 2026-05-06 15:07 | 45.50804 | 12.35015 | 16 ft | 24 kts | 219° |
| 2026-05-06 15:08 | 45.50675 | 12.34857 | 15 ft | 25 kts | 224° |
| 2026-05-06 15:08 | 45.50599 | 12.34670 | 15 ft | 15 kts | 256° |
| 2026-05-06 15:08 | 45.50593 | 12.34541 | 15 ft | 11 kts | 270° |
| 2026-05-06 15:08 | 45.50594 | 12.34488 | 15 ft | 3 kts | 270° |
| 2026-05-06 15:09 | 45.50589 | 12.34437 | 16 ft | 7 kts | 255° |
| 2026-05-06 15:09 | 45.50574 | 12.34399 | 15 ft | 6 kts | 231° |
| 2026-05-06 15:10 | 45.50554 | 12.34360 | 17 ft | 6 kts | 240° |
| 2026-05-06 15:10 | 45.50549 | 12.34298 | 15 ft | 9 kts | 269° |
| 2026-05-06 15:10 | 45.50548 | 12.34240 | 16 ft | 2 kts | 273° |
| 2026-05-06 15:10 | 45.50548 | 12.34217 | 16 ft | 3 kts | 268° |
| 2026-05-06 15:11 | 45.50548 | 12.34213 | 16 ft | 0 kts | 268° |